createdAt,value
2022-09-06T00:00:18.574Z,100279.91
2022-09-06T00:02:45.469Z,100282.16
2022-09-06T00:05:12.750Z,100278.88
2022-09-06T00:07:39.804Z,100280.66
2022-09-06T00:10:07.128Z,100268.88
2022-09-06T00:12:33.725Z,100271.09
2022-09-06T00:15:00.207Z,100277.75
2022-09-06T00:17:27.593Z,100276.25
2022-09-06T00:19:54.042Z,100267.25
2022-09-06T00:22:20.568Z,100271.00
2022-09-06T00:24:47.088Z,100267.53
2022-09-06T00:27:13.561Z,100261.56
2022-09-06T00:29:40.093Z,100267.44
2022-09-06T00:32:06.652Z,100273.72
2022-09-06T00:34:33.081Z,100269.19
2022-09-06T00:36:59.677Z,100266.31
2022-09-06T00:39:26.266Z,100266.03
2022-09-06T00:41:52.777Z,100265.09
2022-09-06T00:44:19.346Z,100270.63
2022-09-06T00:46:47.943Z,100272.31
2022-09-06T00:49:24.328Z,100266.03
2022-09-06T00:51:56.238Z,100266.22
2022-09-06T00:54:22.796Z,100263.34
2022-09-06T00:56:49.696Z,100276.09
2022-09-06T00:59:16.589Z,100274.59
2022-09-06T01:01:43.276Z,100270.00
2022-09-06T01:04:10.104Z,100268.69
2022-09-06T01:06:57.531Z,100270.47
2022-09-06T01:10:05.903Z,100269.13
2022-09-06T01:12:55.632Z,100268.66
2022-09-06T01:15:39.703Z,100263.41
2022-09-06T01:18:37.395Z,100259.84
2022-09-06T01:21:14.695Z,100260.88
2022-09-06T01:23:55.711Z,100262.63
2022-09-06T01:26:53.714Z,100257.94
2022-09-06T01:29:29.832Z,100258.69
2022-09-06T01:32:04.325Z,100269.03
2022-09-06T01:34:45.488Z,100263.97
2022-09-06T01:37:19.990Z,100258.56
2022-09-06T01:39:46.793Z,100258.56
2022-09-06T01:42:20.511Z,100251.78
2022-09-06T01:45:03.528Z,100254.06
2022-09-06T01:47:52.969Z,100251.53
2022-09-06T01:50:23.260Z,100243.72
2022-09-06T01:53:09.577Z,100256.63
2022-09-06T01:56:03.836Z,100265.81
2022-09-06T01:58:45.527Z,100256.63
2022-09-06T02:01:15.440Z,100261.88
2022-09-06T02:04:01.787Z,100260.38
2022-09-06T02:06:41.724Z,100265.97
2022-09-06T02:09:11.983Z,100273.22
2022-09-06T02:11:42.719Z,100265.97
2022-09-06T02:14:14.177Z,100269.53
2022-09-06T02:16:43.559Z,100267.00
2022-09-06T02:19:16.329Z,100263.81
2022-09-06T02:21:45.377Z,100271.09
2022-09-06T02:24:18.497Z,100269.59
2022-09-06T02:26:46.384Z,100265.34
2022-09-06T02:29:14.184Z,100270.50
2022-09-06T02:31:48.605Z,100268.63
2022-09-06T02:34:18.078Z,100261.88
2022-09-06T02:36:45.607Z,100269.88
2022-09-06T02:39:12.740Z,100263.78
2022-09-06T02:41:43.746Z,100255.81
2022-09-06T02:44:10.270Z,100259.56
2022-09-06T02:46:36.727Z,100265.69
2022-09-06T02:49:03.808Z,100263.81
2022-09-06T02:51:30.373Z,100265.38
2022-09-06T02:53:56.888Z,100260.31
2022-09-06T02:56:23.379Z,100258.59
2022-09-06T02:58:49.970Z,100260.66
2022-09-06T03:01:16.856Z,100261.19
2022-09-06T03:03:43.456Z,100250.50
2022-09-06T03:06:09.939Z,100253.59
2022-09-06T03:08:36.575Z,100242.44
2022-09-06T03:11:03.106Z,100246.50
2022-09-06T03:13:29.762Z,100246.53
2022-09-06T03:15:58.030Z,100237.03
2022-09-06T03:18:25.686Z,100237.22
2022-09-06T03:20:53.599Z,100227.56
2022-09-06T03:23:21.222Z,100237.56
2022-09-06T03:25:47.839Z,100232.88
2022-09-06T03:28:14.277Z,100227.28
2022-09-06T03:30:41.002Z,100222.56
2022-09-06T03:33:07.462Z,100231.88
2022-09-06T03:35:34.214Z,100244.91
2022-09-06T03:38:00.672Z,100231.88
2022-09-06T03:40:27.157Z,100236.13
2022-09-06T03:42:53.594Z,100233.06
2022-09-06T03:45:20.386Z,100237.53
2022-09-06T03:47:47.082Z,100228.19
2022-09-06T03:50:13.828Z,100233.31
2022-09-06T03:52:40.653Z,100233.31
2022-09-06T03:55:07.577Z,100231.78
2022-09-06T03:57:34.079Z,100228.75
2022-09-06T04:00:00.579Z,100225.69
2022-09-06T04:02:27.041Z,100219.44
2022-09-06T04:04:55.564Z,100216.75
2022-09-06T04:07:22.811Z,100206.25
2022-09-06T04:09:49.626Z,100205.78
2022-09-06T04:12:16.129Z,100208.97
2022-09-06T04:14:42.772Z,100207.09
2022-09-06T04:17:09.218Z,100207.94
2022-09-06T04:19:35.703Z,100212.53
2022-09-06T04:22:02.333Z,100211.31
2022-09-06T04:24:28.908Z,100208.28
2022-09-06T04:26:55.360Z,100202.88
2022-09-06T04:29:21.792Z,100202.34
2022-09-06T04:31:48.257Z,100195.94
2022-09-06T04:34:16.408Z,100195.06
2022-09-06T04:36:46.487Z,100197.06
2022-09-06T04:39:14.689Z,100198.34
2022-09-06T04:41:41.140Z,100181.75
2022-09-06T04:44:07.689Z,100188.50
2022-09-06T04:46:34.329Z,100190.47
2022-09-06T04:49:01.468Z,100184.19
2022-09-06T04:51:27.962Z,100184.16
2022-09-06T04:53:54.483Z,100176.13
2022-09-06T04:56:23.328Z,100179.63
2022-09-06T04:58:52.084Z,100182.31
2022-09-06T05:01:18.793Z,100188.03
2022-09-06T05:03:45.240Z,100192.38
2022-09-06T05:06:14.477Z,100187.75
2022-09-06T05:08:41.826Z,100198.63
2022-09-06T05:11:09.102Z,100194.44
2022-09-06T05:13:35.685Z,100206.81
2022-09-06T05:16:06.730Z,100208.97
2022-09-06T05:18:33.637Z,100202.44
2022-09-06T05:21:00.789Z,100213.31
2022-09-06T05:23:27.987Z,100221.94
2022-09-06T05:25:54.753Z,100214.19
2022-09-06T05:28:21.394Z,100224.44
2022-09-06T05:30:48.105Z,100218.72
2022-09-06T05:33:20.105Z,100222.34
2022-09-06T05:35:46.574Z,100214.84
2022-09-06T05:38:13.180Z,100212.97
2022-09-06T05:40:39.691Z,100207.28
2022-09-06T05:43:06.193Z,100209.78
2022-09-06T05:45:32.682Z,100216.72
2022-09-06T05:47:59.153Z,100225.78
2022-09-06T05:50:25.675Z,100233.56
2022-09-06T05:52:53.979Z,100231.72
2022-09-06T05:55:20.395Z,100238.94
2022-09-06T05:57:46.810Z,100242.56
2022-09-06T06:00:13.691Z,100238.97
2022-09-06T06:02:40.639Z,100239.13
2022-09-06T06:05:07.938Z,100241.66
2022-09-06T06:07:34.516Z,100235.50
2022-09-06T06:10:00.986Z,100234.97
2022-09-06T06:12:27.514Z,100237.00
2022-09-06T06:14:53.950Z,100234.81
2022-09-06T06:17:20.543Z,100238.88
2022-09-06T06:19:47.003Z,100234.09
2022-09-06T06:22:13.477Z,100230.66
2022-09-06T06:24:39.900Z,100224.47
2022-09-06T06:27:06.376Z,100230.25
2022-09-06T06:29:32.850Z,100235.72
2022-09-06T06:31:59.474Z,100239.75
2022-09-06T06:34:25.953Z,100235.13
2022-09-06T06:36:52.902Z,100236.59
2022-09-06T06:39:19.401Z,100231.38
2022-09-06T06:41:45.999Z,100225.91
2022-09-06T06:44:12.425Z,100236.16
2022-09-06T06:46:39.310Z,100234.47
2022-09-06T06:49:05.898Z,100235.25
2022-09-06T06:51:33.537Z,100235.59
2022-09-06T06:54:00.038Z,100232.88
2022-09-06T06:56:28.656Z,100232.34
2022-09-06T06:59:00.306Z,100239.28
2022-09-06T07:01:28.584Z,100236.91
2022-09-06T07:03:55.377Z,100233.78
2022-09-06T07:09:09.176Z,100242.88
2022-09-06T07:11:35.782Z,100233.91
2022-09-06T07:14:02.184Z,100240.44
2022-09-06T07:16:30.033Z,100235.50
2022-09-06T07:18:56.666Z,100240.09
2022-09-06T07:21:43.414Z,100234.75
2022-09-06T07:24:10.477Z,100244.88
2022-09-06T07:26:38.450Z,100240.66
2022-09-06T07:29:06.221Z,100240.97
2022-09-06T07:34:20.511Z,100238.56
2022-09-06T07:36:47.346Z,100236.81
2022-09-06T07:39:14.198Z,100243.31
2022-09-06T07:41:40.651Z,100237.13
2022-09-06T07:44:07.081Z,100234.63
2022-09-06T07:46:33.557Z,100239.66
2022-09-06T07:49:00.100Z,100240.50
2022-09-06T07:51:26.721Z,100241.53
2022-09-06T07:54:12.837Z,100243.75
2022-09-06T07:56:42.304Z,100247.41
2022-09-06T07:59:09.278Z,100241.56
2022-09-06T08:01:39.259Z,100245.94
2022-09-06T08:04:09.690Z,100242.41
2022-09-06T08:09:25.124Z,100238.16
2022-09-06T08:11:52.725Z,100242.50
2022-09-06T08:14:19.841Z,100244.28
2022-09-06T08:16:46.472Z,100244.09
2022-09-06T08:19:12.938Z,100251.41
2022-09-06T08:21:39.791Z,100252.59
2022-09-06T08:24:07.919Z,100252.94
2022-09-06T08:26:35.993Z,100249.50
2022-09-06T08:29:06.884Z,100257.59
2022-09-06T08:31:34.951Z,100261.06
2022-09-06T08:34:01.791Z,100254.03
2022-09-06T08:36:31.701Z,100256.66
2022-09-06T08:39:00.120Z,100248.56
2022-09-06T08:41:41.891Z,100239.50
2022-09-06T08:47:12.147Z,100239.44
2022-09-06T08:50:06.115Z,100237.22
2022-09-06T08:53:13.113Z,100233.28
2022-09-06T08:55:40.712Z,100231.13
2022-09-06T08:58:32.179Z,100228.25
2022-09-06T09:01:03.780Z,100213.66
2022-09-06T09:03:36.809Z,100214.50
2022-09-06T09:06:06.038Z,100206.34
2022-09-06T09:08:39.993Z,100210.91
2022-09-06T09:11:08.510Z,100211.28
2022-09-06T09:13:47.176Z,100211.75
2022-09-06T09:16:14.963Z,100208.59
2022-09-06T09:18:47.062Z,100202.41
2022-09-06T09:21:16.917Z,100209.22
2022-09-06T09:23:44.990Z,100207.31
2022-09-06T09:26:14.440Z,100199.06
2022-09-06T09:29:10.706Z,100207.22
2022-09-06T09:31:52.837Z,100203.63
2022-09-06T09:34:34.063Z,100202.53
2022-09-06T09:40:14.437Z,100200.69
2022-09-06T09:42:41.883Z,100207.13
2022-09-06T09:45:29.684Z,100191.22
2022-09-06T09:47:56.540Z,100183.91
2022-09-06T09:50:31.903Z,100183.44
2022-09-06T09:53:10.232Z,100185.28
2022-09-06T09:55:37.027Z,100175.88
2022-09-06T09:58:03.937Z,100174.13
2022-09-06T10:00:39.943Z,100166.19
2022-09-06T10:03:17.836Z,100169.97
2022-09-06T10:06:02.047Z,100160.16
2022-09-06T10:08:33.262Z,100164.00
2022-09-06T10:11:00.927Z,100159.72
2022-09-06T10:13:34.221Z,100171.72
2022-09-06T10:16:03.154Z,100162.25
2022-09-06T10:18:34.035Z,100150.63
2022-09-06T10:21:05.666Z,100155.00
2022-09-06T10:26:53.905Z,100145.16
2022-09-06T10:29:45.291Z,100143.78
2022-09-06T10:32:30.392Z,100149.16
2022-09-06T10:35:10.999Z,100150.84
2022-09-06T10:38:08.707Z,100142.91
2022-09-06T10:41:14.343Z,100147.03
2022-09-06T10:43:55.734Z,100140.78
2022-09-06T10:46:26.339Z,100140.41
2022-09-06T10:48:55.862Z,100145.13
2022-09-06T10:51:28.387Z,100143.38
2022-09-06T10:53:57.552Z,100137.25
2022-09-06T10:56:36.637Z,100137.00
2022-09-06T11:02:24.340Z,100135.25
2022-09-06T11:10:33.552Z,100117.91
2022-09-06T11:13:19.422Z,100123.41
2022-09-06T11:15:45.939Z,100123.59
2022-09-06T11:18:24.815Z,100114.56
2022-09-06T11:21:19.545Z,100113.78
2022-09-06T11:23:55.309Z,100101.22
2022-09-06T11:26:29.438Z,100102.03
2022-09-06T11:29:18.740Z,100100.47
2022-09-06T11:34:41.096Z,100106.56
2022-09-06T11:37:08.567Z,100110.44
2022-09-06T11:43:03.812Z,100109.78
2022-09-06T11:45:51.267Z,100100.66
2022-09-06T11:48:23.634Z,100095.06
2022-09-06T11:50:59.067Z,100090.72
2022-09-06T11:53:32.359Z,100089.28
2022-09-06T11:56:02.035Z,100086.47
2022-09-06T11:58:51.748Z,100086.81
2022-09-06T12:01:18.873Z,100090.16
2022-09-06T12:04:05.184Z,100084.03
2022-09-06T12:06:35.974Z,100092.81
2022-09-06T12:09:28.046Z,100080.56
2022-09-06T12:11:56.531Z,100071.00
2022-09-06T12:14:39.484Z,100065.72
2022-09-06T12:17:07.158Z,100066.75
2022-09-06T12:20:07.057Z,100054.06
2022-09-06T12:22:33.846Z,100046.72
2022-09-06T12:25:10.251Z,100048.53
2022-09-06T12:27:39.722Z,100049.63
2022-09-06T12:30:08.927Z,100045.44
2022-09-06T12:32:37.989Z,100050.94
2022-09-06T12:37:57.776Z,100044.63
2022-09-06T12:40:26.347Z,100028.25
2022-09-06T12:42:53.440Z,100037.53
2022-09-06T12:45:27.370Z,100036.59
2022-09-06T12:48:08.953Z,100039.13
2022-09-06T12:50:36.181Z,100048.03
2022-09-06T12:53:03.828Z,100063.16
2022-09-06T12:55:35.925Z,100047.78
2022-09-06T12:58:05.848Z,100040.81
2022-09-06T13:00:39.320Z,100042.44
2022-09-06T13:03:21.022Z,100045.09
2022-09-06T13:05:47.725Z,100045.41
2022-09-06T13:08:29.669Z,100046.13
2022-09-06T13:10:57.217Z,100044.91
2022-09-06T13:13:25.298Z,100045.16
2022-09-06T13:15:52.827Z,100044.47
2022-09-06T13:18:27.239Z,100042.00
2022-09-06T13:21:24.030Z,100035.31
2022-09-06T13:23:50.993Z,100036.69
2022-09-06T13:26:34.993Z,100043.47
2022-09-06T13:29:16.811Z,100051.72
2022-09-06T13:31:51.998Z,100064.66
2022-09-06T13:34:23.270Z,100083.69
2022-09-06T13:36:52.321Z,100088.69
2022-09-06T13:39:49.137Z,100128.34
2022-09-06T13:42:30.585Z,100128.59
2022-09-06T13:45:01.903Z,100148.41
2022-09-06T13:47:29.494Z,100146.22
2022-09-06T13:49:56.025Z,100160.13
2022-09-06T13:52:22.930Z,100170.50
2022-09-06T13:54:49.426Z,100168.91
2022-09-06T13:57:19.985Z,100166.00
2022-09-06T13:59:49.999Z,100149.81
2022-09-06T14:02:19.378Z,100130.75
2022-09-06T14:04:45.938Z,100107.44
2022-09-06T14:07:12.431Z,100100.50
2022-09-06T14:09:39.373Z,100095.03
2022-09-06T14:12:06.851Z,100097.97
2022-09-06T14:14:34.255Z,100099.28
2022-09-06T14:17:00.787Z,100092.53
2022-09-06T14:19:27.594Z,100090.50
2022-09-06T14:21:54.015Z,100088.81
2022-09-06T14:24:20.365Z,100081.94
2022-09-06T14:26:46.848Z,100077.31
2022-09-06T14:29:14.258Z,100075.00
2022-09-06T14:31:40.766Z,100064.53
2022-09-06T14:34:07.251Z,100057.38
2022-09-06T14:36:34.389Z,100046.91
2022-09-06T14:39:03.472Z,100051.31
2022-09-06T14:41:29.995Z,100038.28
2022-09-06T14:43:57.715Z,100038.28
2022-09-06T14:46:25.818Z,100023.38
2022-09-06T14:49:07.494Z,100014.16
2022-09-06T14:51:34.762Z,100020.44
2022-09-06T14:54:07.875Z,100033.91
2022-09-06T14:56:34.641Z,100023.41
2022-09-06T14:59:01.127Z,100024.47
2022-09-06T15:01:33.015Z,100036.81
2022-09-06T15:04:04.814Z,100028.00
2022-09-06T15:06:33.493Z,100018.78
2022-09-06T15:09:00.338Z,100005.75
2022-09-06T15:11:48.814Z,100013.75
2022-09-06T15:14:17.801Z,100009.75
2022-09-06T15:16:45.705Z,100002.41
2022-09-06T15:19:13.038Z,99996.31
2022-09-06T15:21:39.738Z,99986.03
2022-09-06T15:24:11.531Z,99980.16
2022-09-06T15:26:38.153Z,99964.59
2022-09-06T15:29:04.753Z,99961.25
2022-09-06T15:31:34.027Z,99947.63
2022-09-06T15:34:01.531Z,99940.22
2022-09-06T15:36:28.336Z,99935.22
2022-09-06T15:38:56.338Z,99931.03
2022-09-06T15:41:27.401Z,99924.91
2022-09-06T15:43:58.021Z,99928.50
2022-09-06T15:46:37.344Z,99928.50
2022-09-06T15:49:06.729Z,99933.56
2022-09-06T15:51:34.571Z,99935.00
2022-09-06T15:54:01.370Z,99939.22
2022-09-06T15:56:27.837Z,99940.91
2022-09-06T15:58:54.409Z,99938.34
2022-09-06T16:01:23.452Z,99940.44
2022-09-06T16:03:55.494Z,99942.13
2022-09-06T16:06:27.408Z,99943.19
2022-09-06T16:09:00.037Z,99948.66
2022-09-06T16:11:27.940Z,99950.94
2022-09-06T16:13:54.658Z,99946.31
2022-09-06T16:16:22.632Z,99944.63
2022-09-06T16:18:49.232Z,99931.78
2022-09-06T16:21:23.927Z,99942.06
2022-09-06T16:23:53.613Z,99944.41
2022-09-06T16:26:21.872Z,99933.50
2022-09-06T16:28:50.120Z,99938.31
2022-09-06T16:31:16.676Z,99937.28
2022-09-06T16:33:45.165Z,99941.44
2022-09-06T16:36:12.561Z,99945.03
2022-09-06T16:38:39.725Z,99949.88
2022-09-06T16:41:18.174Z,99944.81
2022-09-06T16:43:45.839Z,99940.16
2022-09-06T16:46:12.878Z,99938.91
2022-09-06T16:48:40.622Z,99941.19
2022-09-06T16:51:15.181Z,99939.31
2022-09-06T16:53:43.285Z,99946.50
2022-09-06T16:56:11.133Z,99942.94
2022-09-06T16:58:39.089Z,99952.81
2022-09-06T17:01:08.360Z,99946.88
2022-09-06T17:03:36.567Z,99934.06
2022-09-06T17:06:03.294Z,99935.78
2022-09-06T17:08:35.938Z,99933.22
2022-09-06T17:11:04.977Z,99925.28
2022-09-06T17:13:32.121Z,99927.97
2022-09-06T17:16:21.913Z,99921.47
2022-09-06T17:18:49.537Z,99933.09
2022-09-06T17:21:16.063Z,99934.34
2022-09-06T17:23:42.622Z,99932.66
2022-09-06T17:26:09.141Z,99932.91
2022-09-06T17:28:37.360Z,99940.28
2022-09-06T17:31:07.205Z,99930.81
2022-09-06T17:33:34.486Z,99925.78
2022-09-06T17:36:11.774Z,99928.53
2022-09-06T17:38:39.539Z,99928.94
2022-09-06T17:41:06.780Z,99930.63
2022-09-06T17:43:36.193Z,99924.13
2022-09-06T17:46:03.784Z,99929.78
2022-09-06T17:48:30.380Z,99926.84
2022-09-06T17:51:04.929Z,99924.97
2022-09-06T17:53:31.895Z,99936.47
2022-09-06T17:55:58.525Z,99940.69
2022-09-06T17:58:25.095Z,99940.03
2022-09-06T18:00:51.855Z,99940.47
2022-09-06T18:03:18.362Z,99932.91
2022-09-06T18:05:45.229Z,99937.47
2022-09-06T18:08:13.041Z,99936.88
2022-09-06T18:10:39.777Z,99940.47
2022-09-06T18:13:06.709Z,99940.47
2022-09-06T18:15:39.327Z,99940.25
2022-09-06T18:18:05.839Z,99942.53
2022-09-06T18:20:32.586Z,99947.56
2022-09-06T18:23:00.279Z,99943.34
2022-09-06T18:25:28.384Z,99935.53
2022-09-06T18:27:54.855Z,99929.66
2022-09-06T18:30:21.351Z,99944.94
2022-09-06T18:32:47.927Z,99938.44
2022-09-06T18:35:14.513Z,99938.22
2022-09-06T18:37:40.972Z,99932.72
2022-09-06T18:40:08.060Z,99926.47
2022-09-06T18:42:34.523Z,99933.78
2022-09-06T18:45:00.976Z,99925.75
2022-09-06T18:47:27.539Z,99927.41
2022-09-06T18:49:54.100Z,99933.25
2022-09-06T18:52:20.746Z,99919.84
2022-09-06T18:54:49.001Z,99929.41
2022-09-06T18:57:16.464Z,99917.03
2022-09-06T18:59:43.254Z,99931.66
2022-09-06T19:02:09.836Z,99933.00
2022-09-06T19:04:36.402Z,99925.09
2022-09-06T19:07:03.827Z,99920.44
2022-09-06T19:09:30.348Z,99918.31
2022-09-06T19:11:56.770Z,99922.47
2022-09-06T19:14:23.375Z,99919.09
2022-09-06T19:16:51.585Z,99922.00
2022-09-06T19:19:18.131Z,99928.72
2022-09-06T19:21:44.536Z,99930.81
2022-09-06T19:24:12.171Z,99927.63
2022-09-06T19:26:41.815Z,99925.75
2022-09-06T19:29:12.544Z,99927.63
2022-09-06T19:31:39.558Z,99926.53
2022-09-06T19:34:06.212Z,99930.72
2022-09-06T19:36:33.161Z,99923.59
2022-09-06T19:39:04.426Z,99922.72
2022-09-06T19:41:33.512Z,99920.09
2022-09-06T19:44:00.210Z,99910.00
2022-09-06T19:46:27.520Z,99910.66
2022-09-06T19:48:56.109Z,99915.66
2022-09-06T19:51:24.034Z,99917.53
2022-09-06T19:53:53.193Z,99920.25
2022-09-06T19:56:26.521Z,99912.88
2022-09-06T19:58:55.315Z,99901.13
2022-09-06T20:01:22.741Z,99898.16
2022-09-06T20:03:49.648Z,99896.47
2022-09-06T20:06:16.179Z,99894.34
2022-09-06T20:08:43.132Z,99884.94
2022-09-06T20:11:12.562Z,99884.31
2022-09-06T20:13:39.854Z,99885.16
2022-09-06T20:16:07.728Z,99882.81
2022-09-06T20:18:35.431Z,99880.28
2022-09-06T20:21:02.544Z,99871.50
2022-09-06T20:23:30.026Z,99870.66
2022-09-06T20:26:04.035Z,99875.44
2022-09-06T20:28:30.831Z,99872.31
2022-09-06T20:31:02.674Z,99878.72
2022-09-06T20:33:29.775Z,99876.19
2022-09-06T20:35:57.462Z,99878.44
2022-09-06T20:38:24.546Z,99872.19
2022-09-06T20:41:05.485Z,99877.88
2022-09-06T20:43:34.450Z,99864.09
2022-09-06T20:46:04.188Z,99868.50
2022-09-06T20:48:32.687Z,99854.47
2022-09-06T20:51:01.822Z,99852.38
2022-09-06T20:53:29.819Z,99852.19
2022-09-06T20:55:58.394Z,99842.94
2022-09-06T20:58:25.314Z,99840.63
2022-09-06T21:00:52.226Z,99837.25
2022-09-06T21:03:19.075Z,99833.88
2022-09-06T21:05:45.898Z,99837.13
2022-09-06T21:08:12.453Z,99826.38
2022-09-06T21:10:38.971Z,99817.59
2022-09-06T21:13:05.463Z,99806.94
2022-09-06T21:15:36.424Z,99808.19
2022-09-06T21:18:04.627Z,99806.84
2022-09-06T21:20:32.218Z,99802.25
2022-09-06T21:22:58.993Z,99804.72
2022-09-06T21:25:25.444Z,99806.59
2022-09-06T21:27:55.647Z,99803.03
2022-09-06T21:30:22.490Z,99801.75
2022-09-06T21:32:49.100Z,99800.53
2022-09-06T21:35:15.752Z,99798.16
2022-09-06T21:37:42.513Z,99797.91
2022-09-06T21:40:09.539Z,99806.03
2022-09-06T21:42:36.056Z,99799.19
2022-09-06T21:45:02.529Z,99806.09
2022-09-06T21:47:30.259Z,99801.25
2022-09-06T21:49:57.241Z,99802.03
2022-09-06T21:52:23.850Z,99799.84
2022-09-06T21:54:50.361Z,99800.53
2022-09-06T21:57:17.954Z,99801.56
2022-09-06T21:59:44.401Z,99798.59
2022-09-06T22:02:10.983Z,99789.00
2022-09-06T22:04:37.892Z,99788.16
2022-09-06T22:07:04.366Z,99779.75
2022-09-06T22:09:30.866Z,99784.72
2022-09-06T22:11:57.341Z,99786.41
2022-09-06T22:14:23.831Z,99773.41
2022-09-06T22:16:51.987Z,99773.78
2022-09-06T22:19:18.470Z,99772.94
2022-09-06T22:21:45.483Z,99779.88
2022-09-06T22:24:12.765Z,99789.22
2022-09-06T22:26:40.310Z,99782.13
2022-09-06T22:29:09.007Z,99773.94
2022-09-06T22:31:36.338Z,99775.34
2022-09-06T22:34:04.189Z,99773.88
2022-09-06T22:36:30.943Z,99780.69
2022-09-06T22:38:58.554Z,99771.91
2022-09-06T22:41:28.883Z,99782.56
2022-09-06T22:43:56.090Z,99772.75
2022-09-06T22:46:23.067Z,99766.22
2022-09-06T22:48:49.715Z,99773.31
2022-09-06T22:51:16.318Z,99776.00
2022-09-06T22:53:42.789Z,99775.59
2022-09-06T22:56:09.429Z,99782.72
2022-09-06T22:58:36.001Z,99781.41
2022-09-06T23:01:10.957Z,99784.69
2022-09-06T23:03:38.122Z,99782.56
2022-09-06T23:06:05.041Z,99781.50
2022-09-06T23:08:32.289Z,99785.81
2022-09-06T23:11:04.447Z,99780.50
2022-09-06T23:13:31.076Z,99781.06
2022-09-06T23:16:03.657Z,99777.88
2022-09-06T23:18:31.069Z,99769.28
2022-09-06T23:20:58.004Z,99774.72
2022-09-06T23:23:24.682Z,99775.09
2022-09-06T23:25:51.585Z,99768.81
2022-09-06T23:28:18.125Z,99765.09
2022-09-06T23:30:45.375Z,99764.72
2022-09-06T23:33:11.840Z,99768.81
2022-09-06T23:35:39.482Z,99756.34
2022-09-06T23:38:07.243Z,99744.94
2022-09-06T23:40:33.906Z,99746.53
2022-09-06T23:43:00.879Z,99758.66
2022-09-06T23:45:27.643Z,99746.16
2022-09-06T23:47:54.347Z,99747.00
2022-09-06T23:50:20.940Z,99748.19
2022-09-06T23:52:47.615Z,99747.38
2022-09-06T23:55:14.170Z,99750.25
2022-09-06T23:57:40.625Z,99746.91
